Time,TemperatureF,DewpointF,PressureIn,WindDirection,WindDirectionDegrees,WindSpeedMPH,WindSpeedGustMPH,Humidity,HourlyPrecipIn,Conditions,Clouds,dailyrainin,SolarRadiationWatts/m^2,SoftwareType,DateUTC
2013-02-12 00:01:00,37.0,36.0,-100.00,East,86,1.0,9.0,97,0.01,,,0.27,0.000000,,2013-02-12 05:01:00,
2013-02-12 00:32:00,36.0,35.0,-100.00,SSW,211,3.0,10.0,97,0.00,,,0.27,0.000000,,2013-02-12 05:32:00,
2013-02-12 00:42:00,36.0,35.0,-100.00,SSW,211,3.0,10.0,97,0.00,,,0.27,0.000000,,2013-02-12 05:42:00,
2013-02-12 00:52:00,36.0,35.0,-100.00,SSW,211,3.0,10.0,97,0.00,,,0.27,0.000000,,2013-02-12 05:52:00,
2013-02-12 01:02:00,36.0,35.0,-100.00,SSW,211,3.0,10.0,97,0.00,,,0.27,0.000000,,2013-02-12 06:02:00,
2013-02-12 01:32:00,34.0,33.0,-100.00,SSW,201,2.0,6.0,97,0.00,,,0.27,0.000000,,2013-02-12 06:32:00,
2013-02-12 01:42:00,34.0,33.0,-100.00,SSW,201,2.0,6.0,97,0.00,,,0.27,0.000000,,2013-02-12 06:42:00,
2013-02-12 01:52:00,34.0,33.0,-100.00,SSW,201,2.0,6.0,97,0.00,,,0.27,0.000000,,2013-02-12 06:52:00,
2013-02-12 02:02:00,34.0,33.0,-100.00,SSW,201,2.0,6.0,97,0.00,,,0.27,0.000000,,2013-02-12 07:02:00,
2013-02-12 02:32:00,38.0,33.0,-100.00,SSW,208,5.0,8.0,83,0.00,,,0.27,0.000000,,2013-02-12 07:32:00,
2013-02-12 02:42:00,38.0,33.0,-100.00,SSW,208,5.0,8.0,83,0.00,,,0.27,0.000000,,2013-02-12 07:42:00,
2013-02-12 02:52:00,38.0,33.0,-100.00,SSW,208,5.0,8.0,83,0.00,,,0.27,0.000000,,2013-02-12 07:52:00,
2013-02-12 03:01:00,38.0,33.0,-100.00,SSW,208,5.0,8.0,83,0.00,,,0.27,0.000000,,2013-02-12 08:01:00,
2013-02-12 03:32:00,38.0,32.0,-100.00,WSW,244,4.0,10.0,78,0.01,,,0.28,0.000000,,2013-02-12 08:32:00,
2013-02-12 03:42:00,38.0,32.0,-100.00,WSW,244,4.0,10.0,78,0.01,,,0.28,0.000000,,2013-02-12 08:42:00,
2013-02-12 03:52:00,38.0,32.0,-100.00,WSW,244,4.0,10.0,78,0.01,,,0.28,0.000000,,2013-02-12 08:52:00,
2013-02-12 04:02:00,38.0,32.0,-100.00,WSW,244,4.0,10.0,78,0.01,,,0.28,0.000000,,2013-02-12 09:02:00,
2013-02-12 04:32:00,39.0,30.0,-100.00,SW,234,6.0,10.0,71,0.00,,,0.28,0.000000,,2013-02-12 09:32:00,
2013-02-12 04:42:00,39.0,30.0,-100.00,SW,234,6.0,10.0,71,0.00,,,0.28,0.000000,,2013-02-12 09:42:00,
2013-02-12 04:52:00,39.0,30.0,-100.00,SW,234,6.0,10.0,71,0.00,,,0.28,0.000000,,2013-02-12 09:52:00,
2013-02-12 05:01:00,39.0,30.0,-100.00,SW,234,6.0,10.0,71,0.00,,,0.28,0.000000,,2013-02-12 10:01:00,
2013-02-12 05:32:00,39.0,29.0,-100.00,WSW,241,6.0,12.0,66,0.00,,,0.28,0.000000,,2013-02-12 10:32:00,
2013-02-12 05:43:00,39.0,29.0,-100.00,WSW,241,6.0,12.0,66,0.00,,,0.28,0.000000,,2013-02-12 10:43:00,
2013-02-12 05:52:00,39.0,29.0,-100.00,WSW,241,6.0,12.0,66,0.00,,,0.28,0.000000,,2013-02-12 10:52:00,
2013-02-12 06:02:00,39.0,29.0,-100.00,WSW,241,6.0,12.0,66,0.00,,,0.28,0.000000,,2013-02-12 11:02:00,
2013-02-12 06:32:00,39.0,25.0,-100.00,WSW,253,8.0,15.0,57,0.01,,,0.29,0.000000,,2013-02-12 11:32:00,
2013-02-12 06:42:00,39.0,25.0,-100.00,WSW,253,8.0,15.0,57,0.01,,,0.29,0.000000,,2013-02-12 11:42:00,
2013-02-12 06:53:00,39.0,25.0,-100.00,WSW,253,8.0,15.0,57,0.01,,,0.29,0.000000,,2013-02-12 11:53:00,
2013-02-12 07:02:00,39.0,25.0,-100.00,WSW,253,8.0,15.0,57,0.01,,,0.29,0.000000,,2013-02-12 12:02:00,
2013-02-12 07:32:00,39.0,25.0,-100.00,WSW,256,7.0,16.0,56,0.01,,,0.30,1.000000,,2013-02-12 12:32:00,
2013-02-12 07:42:00,39.0,25.0,-100.00,WSW,256,7.0,16.0,56,0.01,,,0.30,1.000000,,2013-02-12 12:42:00,
2013-02-12 07:53:00,39.0,25.0,-100.00,WSW,256,7.0,16.0,56,0.01,,,0.30,1.000000,,2013-02-12 12:53:00,
2013-02-12 08:02:00,39.0,25.0,-100.00,WSW,256,7.0,16.0,56,0.01,,,0.30,1.000000,,2013-02-12 13:02:00,
2013-02-12 08:32:00,39.0,26.0,-100.00,SW,217,7.0,11.0,60,0.00,,,0.30,18.000000,,2013-02-12 13:32:00,
2013-02-12 08:42:00,39.0,26.0,-100.00,SW,217,7.0,11.0,60,0.00,,,0.30,18.000000,,2013-02-12 13:42:00,
2013-02-12 08:52:00,39.0,26.0,-100.00,SW,217,7.0,11.0,60,0.00,,,0.30,18.000000,,2013-02-12 13:52:00,
2013-02-12 09:01:00,39.0,26.0,-100.00,SW,217,7.0,11.0,60,0.00,,,0.30,18.000000,,2013-02-12 14:01:00,
2013-02-12 09:32:00,39.0,26.0,-100.00,WSW,237,7.0,13.0,60,0.01,,,0.31,54.000000,,2013-02-12 14:32:00,
2013-02-12 09:42:00,39.0,26.0,-100.00,WSW,237,7.0,13.0,60,0.01,,,0.31,54.000000,,2013-02-12 14:42:00,
2013-02-12 09:52:00,39.0,26.0,-100.00,WSW,237,7.0,13.0,60,0.01,,,0.31,54.000000,,2013-02-12 14:52:00,
2013-02-12 10:02:00,39.0,26.0,-100.00,WSW,237,7.0,13.0,60,0.01,,,0.31,54.000000,,2013-02-12 15:02:00,
2013-02-12 10:32:00,40.0,24.0,-100.00,West,260,8.0,21.0,53,0.00,,,0.28,79.000000,,2013-02-12 15:32:00,
2013-02-12 10:42:00,40.0,24.0,-100.00,West,260,8.0,21.0,53,0.00,,,0.28,79.000000,,2013-02-12 15:42:00,
2013-02-12 10:52:00,40.0,24.0,-100.00,West,260,8.0,21.0,53,0.00,,,0.28,79.000000,,2013-02-12 15:52:00,
2013-02-12 11:01:00,40.0,24.0,-100.00,West,260,8.0,21.0,53,0.00,,,0.28,79.000000,,2013-02-12 16:01:00,
2013-02-12 11:32:00,41.0,25.0,-100.00,West,266,8.0,18.0,52,0.00,,,0.22,124.000000,,2013-02-12 16:32:00,
2013-02-12 11:42:00,41.0,25.0,-100.00,West,266,8.0,18.0,52,0.00,,,0.22,124.000000,,2013-02-12 16:42:00,
2013-02-12 11:52:00,41.0,25.0,-100.00,West,266,8.0,18.0,52,0.00,,,0.22,124.000000,,2013-02-12 16:52:00,
2013-02-12 12:01:00,41.0,25.0,-100.00,West,266,8.0,18.0,52,0.00,,,0.22,124.000000,,2013-02-12 17:01:00,
2013-02-12 12:32:00,41.0,24.0,-100.00,West,271,8.0,19.0,51,0.00,,,0.18,165.000000,,2013-02-12 17:32:00,
2013-02-12 12:42:00,41.0,24.0,-100.00,West,271,8.0,19.0,51,0.00,,,0.18,165.000000,,2013-02-12 17:42:00,
2013-02-12 12:52:00,41.0,24.0,-100.00,West,271,8.0,19.0,51,0.00,,,0.18,165.000000,,2013-02-12 17:52:00,
2013-02-12 13:02:00,41.0,24.0,-100.00,West,271,8.0,19.0,51,0.00,,,0.18,165.000000,,2013-02-12 18:02:00,
2013-02-12 14:32:00,42.0,24.0,-100.00,West,273,11.0,21.0,49,-99.99,,,-99.99,168.000000,,2013-02-12 19:32:00,
2013-02-12 14:42:00,42.0,24.0,-100.00,West,273,11.0,21.0,49,-99.99,,,-99.99,168.000000,,2013-02-12 19:42:00,
2013-02-12 14:52:00,42.0,24.0,-100.00,West,273,11.0,21.0,49,-99.99,,,-99.99,168.000000,,2013-02-12 19:52:00,
2013-02-12 15:01:00,42.0,24.0,-100.00,West,273,11.0,21.0,49,-99.99,,,-99.99,168.000000,,2013-02-12 20:01:00,
2013-02-12 16:32:00,40.0,24.0,-100.00,West,267,6.0,16.0,52,-99.99,,,0.10,100.000000,,2013-02-12 21:32:00,
2013-02-12 16:42:00,40.0,24.0,-100.00,West,267,6.0,16.0,52,-99.99,,,0.10,100.000000,,2013-02-12 21:42:00,
2013-02-12 16:52:00,40.0,24.0,-100.00,West,267,6.0,16.0,52,-99.99,,,0.10,100.000000,,2013-02-12 21:52:00,
2013-02-12 17:01:00,40.0,24.0,-100.00,West,267,6.0,16.0,52,-99.99,,,0.10,100.000000,,2013-02-12 22:01:00,
2013-02-12 17:32:00,39.0,24.0,-100.00,West,269,5.0,14.0,54,0.00,,,0.09,45.000000,,2013-02-12 22:32:00,
2013-02-12 17:42:00,39.0,24.0,-100.00,West,269,5.0,14.0,54,0.00,,,0.09,45.000000,,2013-02-12 22:42:00,
2013-02-12 17:52:00,39.0,24.0,-100.00,West,269,5.0,14.0,54,0.00,,,0.09,45.000000,,2013-02-12 22:52:00,
2013-02-12 18:02:00,39.0,24.0,-100.00,West,269,5.0,14.0,54,0.00,,,0.09,45.000000,,2013-02-12 23:02:00,
2013-02-12 18:32:00,38.0,23.0,-100.00,West,259,8.0,13.0,55,0.00,,,0.08,5.000000,,2013-02-12 23:32:00,
2013-02-12 18:42:00,38.0,23.0,-100.00,West,259,8.0,13.0,55,0.00,,,0.08,5.000000,,2013-02-12 23:42:00,
2013-02-12 18:52:00,38.0,23.0,-100.00,West,259,8.0,13.0,55,0.00,,,0.08,5.000000,,2013-02-12 23:52:00,
2013-02-12 19:02:00,38.0,23.0,-100.00,West,259,8.0,13.0,55,0.00,,,0.08,5.000000,,2013-02-13 00:02:00,
2013-02-12 19:32:00,38.0,23.0,-100.00,WSW,258,7.0,17.0,54,0.00,,,0.07,0.000000,,2013-02-13 00:32:00,
2013-02-12 19:42:00,38.0,23.0,-100.00,WSW,258,7.0,17.0,54,0.00,,,0.07,0.000000,,2013-02-13 00:42:00,
2013-02-12 19:52:00,38.0,23.0,-100.00,WSW,258,7.0,17.0,54,0.00,,,0.07,0.000000,,2013-02-13 00:52:00,
2013-02-12 20:01:00,38.0,23.0,-100.00,WSW,258,7.0,17.0,54,0.00,,,0.07,0.000000,,2013-02-13 01:01:00,
2013-02-12 21:42:00,36.0,23.0,-100.00,WSW,255,3.0,7.0,58,-99.99,,,0.06,0.000000,,2013-02-13 02:42:00,
2013-02-12 21:52:00,36.0,23.0,-100.00,WSW,255,3.0,7.0,58,-99.99,,,0.06,0.000000,,2013-02-13 02:52:00,
2013-02-12 22:02:00,36.0,23.0,-100.00,WSW,255,3.0,7.0,58,-99.99,,,0.06,0.000000,,2013-02-13 03:02:00,
2013-02-12 22:32:00,37.0,22.0,-100.00,West,274,5.0,9.0,55,0.00,,,0.05,0.000000,,2013-02-13 03:32:00,
2013-02-12 22:42:00,37.0,22.0,-100.00,West,274,5.0,9.0,55,0.00,,,0.05,0.000000,,2013-02-13 03:42:00,
2013-02-12 22:52:00,37.0,22.0,-100.00,West,274,5.0,9.0,55,0.00,,,0.05,0.000000,,2013-02-13 03:52:00,
2013-02-12 23:01:00,37.0,22.0,-100.00,West,274,5.0,9.0,55,0.00,,,0.05,0.000000,,2013-02-13 04:01:00,
2013-02-12 23:32:00,37.0,22.0,-100.00,WNW,288,4.0,11.0,55,0.00,,,-99.99,0.000000,,2013-02-13 04:32:00,
2013-02-12 23:42:00,37.0,22.0,-100.00,WNW,288,4.0,11.0,55,0.00,,,-99.99,0.000000,,2013-02-13 04:42:00,
2013-02-12 23:52:00,37.0,22.0,-100.00,WNW,288,4.0,11.0,55,0.00,,,-99.99,0.000000,,2013-02-13 04:52:00,